Time;durP1;ratioP1;P1;durP2;ratioP2;P2;SDS_P1;SDS_P2;PMS_P1;PMS_P2;Temp;Humidity;BMP_temperature;BMP_pressure;BME280_temperature;BME280_humidity;BME280_pressure;Samples;Min_cycle;Max_cycle;Signal;HPM_P1;HPM_P2
2024/01/12 00:02:16;;;;;;;;;21.00;21.00;;;;;3.02;80.43;102628.13;4928429;28;44944;-85
2024/01/12 00:04:41;;;;;;;;;23.00;22.67;;;;;3.06;80.21;102620.56;4912540;28;45390;-86
2024/01/12 00:07:07;;;;;;;;;23.33;18.67;;;;;3.13;81.80;102621.94;4913706;28;45514;-86
2024/01/12 00:09:32;;;;;;;;;26.67;24.00;;;;;3.10;81.36;102609.50;4910870;29;44732;-85
2024/01/12 00:11:58;;;;;;;;;24.00;20.67;;;;;3.23;81.13;102623.53;4912612;28;44828;-85
2024/01/12 00:14:23;;;;;;;;;31.33;27.00;;;;;3.25;81.64;102617.59;4927325;28;45025;-86
2024/01/12 00:16:48;;;;;;;;;22.00;21.00;;;;;3.17;81.43;102614.41;4913211;28;45692;-85
2024/01/12 00:19:15;;;;;;;;;29.00;24.33;;;;;3.19;80.99;102602.28;4913211;28;45131;-85
2024/01/12 00:21:43;;;;;;;;;28.00;24.00;;;;;3.49;80.77;102635.97;4913237;28;45684;-85
2024/01/12 00:24:09;;;;;;;;;24.33;24.33;;;;;3.40;79.89;102623.97;4914275;28;45706;-86
2024/01/12 00:26:34;;;;;;;;;20.33;14.67;;;;;3.49;80.03;102628.09;4914423;28;45293;-85
2024/01/12 00:29:00;;;;;;;;;21.67;20.00;;;;;3.49;80.32;102633.34;4928723;28;45695;-85
2024/01/12 00:31:26;;;;;;;;;18.00;18.00;;;;;3.63;79.69;102631.72;4928306;28;45372;-85
2024/01/12 00:33:52;;;;;;;;;21.00;20.33;;;;;3.62;80.28;102638.72;4927761;28;44849;-86
2024/01/12 00:36:17;;;;;;;;;27.67;26.67;;;;;3.67;80.41;102633.78;4926223;28;46678;-85
2024/01/12 00:38:42;;;;;;;;;25.67;22.67;;;;;3.69;79.58;102630.44;4927518;28;45121;-85
2024/01/12 00:41:09;;;;;;;;;23.67;21.67;;;;;3.70;79.55;102624.41;4914472;28;44794;-85
2024/01/12 00:43:34;;;;;;;;;19.00;18.00;;;;;3.69;79.90;102619.91;4914488;28;44859;-86
2024/01/12 00:46:03;;;;;;;;;27.00;24.00;;;;;3.80;78.87;102628.59;4914720;28;47123;-86
2024/01/12 00:48:29;;;;;;;;;25.00;24.00;;;;;3.74;78.70;102626.44;4930062;28;44866;-86
2024/01/12 00:50:54;;;;;;;;;29.33;29.33;;;;;3.82;78.69;102627.00;4911598;29;44958;-86
2024/01/12 00:53:19;;;;;;;;;40.00;36.33;;;;;3.73;79.07;102600.00;4912295;28;45046;-86
2024/01/12 00:55:45;;;;;;;;;33.00;31.00;;;;;3.93;78.54;102627.75;4914540;29;47162;-85
2024/01/12 00:58:10;;;;;;;;;35.00;32.00;;;;;3.97;78.06;102624.53;4914380;28;45165;-85
2024/01/12 01:00:36;;;;;;;;;21.00;19.00;;;;;3.98;78.96;102618.47;4915885;28;44899;-85
2024/01/12 01:03:02;;;;;;;;;30.67;28.33;;;;;3.98;79.13;102610.59;4914257;28;44899;-86
2024/01/12 01:05:28;;;;;;;;;27.67;27.67;;;;;4.03;78.95;102609.16;4915696;28;45138;-86
2024/01/12 01:08:45;;;;;;;;;34.00;30.67;;;;;4.25;78.15;102611.59;4912579;29;44960;-86
2024/01/12 01:11:10;;;;;;;;;27.33;24.00;;;;;4.09;79.13;102593.81;4927864;28;44922;-85
2024/01/12 01:13:36;;;;;;;;;26.67;24.00;;;;;4.12;79.42;102587.84;4913250;28;45477;-85
2024/01/12 01:16:03;;;;;;;;;21.00;18.33;;;;;4.21;80.06;102589.41;4912119;29;44956;-85
2024/01/12 01:18:30;;;;;;;;;11.67;8.33;;;;;4.23;80.70;102585.97;4913853;29;44891;-86
2024/01/12 01:21:03;;;;;;;;;23.00;18.67;;;;;4.25;80.89;102584.34;4927511;28;44804;-85
2024/01/12 01:23:33;;;;;;;;;19.67;19.67;;;;;4.37;80.53;102579.94;4926120;28;45262;-85
2024/01/12 01:25:59;;;;;;;;;21.67;18.67;;;;;4.31;81.14;102587.41;4925382;28;47258;-85
2024/01/12 01:28:24;;;;;;;;;12.33;12.00;;;;;4.27;81.74;102573.13;4912104;28;45509;-85
2024/01/12 01:30:50;;;;;;;;;18.67;16.67;;;;;4.36;81.35;102578.09;4926116;28;45424;-84
2024/01/12 01:33:15;;;;;;;;;16.00;16.00;;;;;4.40;81.63;102586.34;4926658;28;45543;-85
2024/01/12 01:35:41;;;;;;;;;16.00;16.00;;;;;4.37;82.64;102574.66;4926150;28;46918;-85
2024/01/12 01:38:06;;;;;;;;;15.00;14.33;;;;;4.43;82.26;102590.88;4911407;28;44794;-85
2024/01/12 01:40:34;;;;;;;;;14.33;11.33;;;;;4.48;82.70;102585.94;4926697;28;44899;-86
2024/01/12 01:43:09;;;;;;;;;17.33;15.00;;;;;4.47;82.88;102577.13;4926895;28;45698;-86
2024/01/12 01:45:41;;;;;;;;;14.67;14.33;;;;;4.63;83.60;102592.25;4910848;28;45211;-86
2024/01/12 01:48:08;;;;;;;;;10.33;10.33;;;;;4.58;82.71;102586.66;4914355;28;45237;-86
2024/01/12 01:50:35;;;;;;;;;8.33;8.00;;;;;4.64;83.26;102585.25;4914719;28;44781;-86
2024/01/12 01:53:01;;;;;;;;;11.33;9.67;;;;;4.61;83.79;102581.59;4932254;28;44829;-86
2024/01/12 01:55:29;;;;;;;;;12.00;12.00;;;;;4.74;83.98;102593.88;4931709;28;45336;-86
2024/01/12 01:57:57;;;;;;;;;12.00;12.00;;;;;4.77;83.55;102585.28;4932331;28;44890;-86
2024/01/12 02:00:23;;;;;;;;;13.00;10.67;;;;;4.71;84.04;102582.22;4931122;28;44736;-84
2024/01/12 02:02:48;;;;;;;;;12.33;11.33;;;;;4.70;84.22;102576.03;4934462;28;44815;-84
2024/01/12 02:05:14;;;;;;;;;18.00;11.00;;;;;4.71;84.34;102566.41;4918244;28;47170;-84
2024/01/12 02:07:41;;;;;;;;;11.00;8.33;;;;;4.63;86.29;102546.53;4917287;28;44934;-83
2024/01/12 02:10:07;;;;;;;;;12.33;11.33;;;;;4.68;85.63;102567.09;4934672;28;44925;-84
2024/01/12 02:12:39;;;;;;;;;11.33;9.67;;;;;4.91;85.89;102586.19;4915859;28;44888;-84
2024/01/12 02:15:09;;;;;;;;;12.67;11.00;;;;;4.84;85.46;102578.69;4932968;28;45705;-84
2024/01/12 02:17:35;;;;;;;;;11.33;11.33;;;;;4.81;85.75;102572.41;4917325;28;45352;-83
2024/01/12 02:20:01;;;;;;;;;19.33;15.00;;;;;4.85;85.79;102564.69;4931757;28;45465;-84
2024/01/12 02:22:26;;;;;;;;;8.33;8.00;;;;;4.91;85.38;102571.28;4934274;28;44954;-83
2024/01/12 02:24:52;;;;;;;;;12.00;9.00;;;;;4.92;84.81;102569.56;4918517;28;47054;-85
2024/01/12 02:27:19;;;;;;;;;9.00;9.00;;;;;4.91;84.82;102558.13;4935761;28;44934;-86
2024/01/12 02:29:47;;;;;;;;;12.00;10.33;;;;;4.98;86.03;102557.69;4918848;28;44748;-85
2024/01/12 02:32:12;;;;;;;;;15.33;11.33;;;;;4.89;85.50;102567.66;4934318;28;44813;-84
2024/01/12 02:38:00;;;;;;;;;12.00;12.00;;;;;4.89;85.09;102564.06;4934139;28;44859;-84
2024/01/12 02:40:32;;;;;;;;;20.33;18.67;;;;;4.85;84.91;102565.63;4916817;28;44859;-84
2024/01/12 02:42:57;;;;;;;;;24.00;18.67;;;;;4.79;84.82;102565.22;4918045;28;44920;-85
2024/01/12 02:45:23;;;;;;;;;21.67;19.00;;;;;4.81;84.45;102568.88;4917520;28;47714;-83
2024/01/12 02:48:42;;;;;;;;;21.33;19.00;;;;;4.95;84.71;102568.06;4928737;28;44854;-84
2024/01/12 02:51:07;;;;;;;;;25.33;19.00;;;;;4.78;84.24;102558.09;4927372;28;44691;-83
2024/01/12 02:53:36;;;;;;;;;17.33;15.33;;;;;4.82;84.48;102554.84;4914266;28;45180;-83
2024/01/12 02:56:01;;;;;;;;;18.67;16.67;;;;;4.74;84.53;102561.34;4928701;28;47262;-85
2024/01/12 02:58:26;;;;;;;;;8.00;5.00;;;;;4.67;84.47;102553.84;4913396;28;44916;-83
2024/01/12 03:00:52;;;;;;;;;22.00;20.67;;;;;4.68;85.01;102555.66;4929342;28;45228;-83
2024/01/12 03:03:19;;;;;;;;;24.67;22.67;;;;;4.65;84.47;102559.00;4929420;28;45373;-84
2024/01/12 03:05:44;;;;;;;;;28.33;24.67;;;;;4.66;84.86;102562.56;4913411;28;45457;-85
2024/01/12 03:08:10;;;;;;;;;20.67;19.33;;;;;4.62;84.59;102561.41;4913647;29;45291;-84
2024/01/12 03:10:36;;;;;;;;;23.67;22.00;;;;;4.56;84.50;102561.91;4914378;28;44983;-83
2024/01/12 03:13:02;;;;;;;;;32.33;27.67;;;;;4.64;84.62;102556.25;4929856;28;44929;-84
2024/01/12 03:15:30;;;;;;;;;25.00;21.33;;;;;4.53;85.00;102545.91;4914161;28;46429;-84
2024/01/12 03:18:00;;;;;;;;;24.33;19.00;;;;;4.70;84.95;102546.13;4913917;28;44873;-83
2024/01/12 03:20:25;;;;;;;;;29.00;25.67;;;;;4.60;85.37;102549.88;4929000;28;45233;-84
2024/01/12 03:22:51;;;;;;;;;31.67;29.33;;;;;4.69;85.18;102553.13;4930740;28;45257;-83
2024/01/12 03:25:17;;;;;;;;;26.33;20.67;;;;;4.63;85.40;102558.00;4915712;28;45244;-83
2024/01/12 03:27:43;;;;;;;;;28.33;23.67;;;;;4.55;86.18;102536.38;4914799;28;45320;-83
2024/01/12 03:30:09;;;;;;;;;23.67;20.33;;;;;4.51;86.21;102530.81;4930832;28;45316;-84
2024/01/12 03:32:35;;;;;;;;;22.00;19.33;;;;;4.64;86.29;102548.34;4915744;28;45326;-84
2024/01/12 03:35:01;;;;;;;;;35.00;28.67;;;;;4.65;86.00;102539.66;4912807;29;47167;-84
2024/01/12 03:37:26;;;;;;;;;30.00;23.67;;;;;4.72;86.19;102557.69;4913433;29;44877;-85
2024/01/12 03:39:51;;;;;;;;;31.33;27.00;;;;;4.74;86.41;102556.97;4914759;28;45030;-85
2024/01/12 03:42:17;;;;;;;;;33.00;26.00;;;;;4.78;86.13;102555.47;4931711;28;45449;-85
2024/01/12 03:44:43;;;;;;;;;21.33;20.33;;;;;4.69;85.98;102531.16;4916700;28;45659;-85
2024/01/12 03:47:08;;;;;;;;;31.33;24.00;;;;;4.83;86.45;102543.50;4914059;28;44794;-84
2024/01/12 03:49:34;;;;;;;;;26.67;22.00;;;;;4.85;86.21;102539.25;4915399;28;45082;-85
2024/01/12 03:51:59;;;;;;;;;31.00;26.67;;;;;4.90;86.49;102531.63;4929287;28;44847;-85
2024/01/12 03:54:25;;;;;;;;;38.33;29.00;;;;;4.98;86.17;102536.59;4929897;28;47359;-84
2024/01/12 03:56:52;;;;;;;;;34.67;29.00;;;;;4.97;85.98;102525.97;4933430;28;44809;-86
2024/01/12 03:59:17;;;;;;;;;30.67;28.33;;;;;5.00;85.97;102529.69;4918015;28;44724;-85
2024/01/12 04:01:44;;;;;;;;;30.33;25.67;;;;;5.12;86.08;102539.22;4917200;28;44765;-85
2024/01/12 04:04:10;;;;;;;;;30.33;29.67;;;;;5.09;86.15;102539.03;4917363;28;45377;-85
2024/01/12 04:06:35;;;;;;;;;29.00;25.67;;;;;5.06;86.02;102534.47;4931733;28;45209;-83
2024/01/12 04:09:00;;;;;;;;;26.67;22.33;;;;;5.14;86.36;102532.34;4932081;28;44780;-84
2024/01/12 04:11:29;;;;;;;;;26.67;25.67;;;;;5.27;85.74;102534.97;4915980;29;44844;-85
2024/01/12 04:13:55;;;;;;;;;24.00;20.00;;;;;5.15;85.78;102528.88;4930589;28;45796;-84
2024/01/12 04:16:21;;;;;;;;;20.67;20.67;;;;;5.18;85.49;102523.81;4931707;28;44833;-84
2024/01/12 04:18:46;;;;;;;;;38.00;31.67;;;;;5.07;85.75;102498.44;4931948;28;44881;-84
2024/01/12 04:21:12;;;;;;;;;30.00;26.33;;;;;5.28;86.38;102522.69;4916812;28;44759;-84
2024/01/12 04:23:39;;;;;;;;;31.00;28.33;;;;;5.36;86.24;102529.34;4917453;29;47324;-85
2024/01/12 04:26:05;;;;;;;;;29.67;27.33;;;;;5.41;86.31;102534.13;4916037;28;45759;-83
2024/01/12 04:28:31;;;;;;;;;27.33;23.67;;;;;5.30;85.90;102513.13;4918310;28;44946;-84
2024/01/12 04:30:56;;;;;;;;;28.33;26.00;;;;;5.33;86.37;102514.25;4933344;28;44906;-85
2024/01/12 04:33:21;;;;;;;;;37.00;29.00;;;;;5.44;86.45;102537.78;4932831;28;47049;-84
2024/01/12 04:35:47;;;;;;;;;30.67;29.00;;;;;5.37;86.24;102539.06;4917622;29;44974;-83
2024/01/12 04:38:12;;;;;;;;;29.67;26.00;;;;;5.41;86.47;102531.47;4917616;29;44809;-85
2024/01/12 04:40:39;;;;;;;;;31.33;25.33;;;;;5.45;86.37;102535.19;4917530;28;44967;-85
2024/01/12 04:43:04;;;;;;;;;36.67;32.00;;;;;5.35;86.12;102533.72;4917609;28;45300;-84
2024/01/12 04:45:30;;;;;;;;;26.33;25.33;;;;;5.37;86.85;102526.81;4917003;29;44770;-86
2024/01/12 04:47:55;;;;;;;;;26.67;24.00;;;;;5.43;86.94;102539.47;4931088;28;45206;-85
2024/01/12 04:50:21;;;;;;;;;30.67;24.00;;;;;5.43;87.72;102531.56;4919171;28;45395;-84
2024/01/12 04:52:47;;;;;;;;;34.67;25.67;;;;;5.37;86.89;102526.81;4936279;28;45033;-85
2024/01/12 04:55:20;;;;;;;;;24.00;17.33;;;;;5.46;87.21;102529.13;4935810;28;44802;-84
2024/01/12 04:57:45;;;;;;;;;30.00;26.00;;;;;5.50;86.99;102538.16;4905308;28;44774;-84
2024/01/12 05:00:11;;;;;;;;;25.33;24.67;;;;;5.51;87.17;102517.13;4936744;28;44887;-85
2024/01/12 05:02:37;;;;;;;;;30.33;26.33;;;;;5.56;87.38;102533.25;4918739;28;47179;-84
2024/01/12 05:05:04;;;;;;;;;33.67;24.67;;;;;5.59;87.51;102523.81;4936300;28;44771;-85
2024/01/12 05:07:30;;;;;;;;;29.33;24.00;;;;;5.58;87.64;102531.63;4919699;28;44799;-84
2024/01/12 05:09:57;;;;;;;;;27.67;20.00;;;;;5.58;87.06;102515.81;4937412;28;44808;-83
2024/01/12 05:12:22;;;;;;;;;41.00;31.67;;;;;5.53;87.33;102504.94;4937629;28;45715;-85
2024/01/12 05:15:41;;;;;;;;;28.33;26.00;;;;;5.78;86.84;102517.94;4936015;28;45166;-85
2024/01/12 05:18:06;;;;;;;;;22.00;20.33;;;;;5.62;87.00;102512.53;4936994;28;44806;-84
2024/01/12 05:20:32;;;;;;;;;27.33;23.33;;;;;5.66;86.93;102519.81;4936869;28;45352;-84
2024/01/12 05:22:57;;;;;;;;;26.33;24.33;;;;;5.69;86.78;102519.09;4917818;28;46995;-83
2024/01/12 05:25:23;;;;;;;;;27.00;22.67;;;;;5.59;86.62;102496.50;4936454;28;45196;-84
2024/01/12 05:27:48;;;;;;;;;23.00;21.33;;;;;5.73;86.42;102516.72;4919878;28;44850;-84
2024/01/12 05:30:14;;;;;;;;;25.67;25.67;;;;;5.51;86.75;102471.34;4935812;28;44822;-84
2024/01/12 05:32:39;;;;;;;;;20.33;20.33;;;;;5.74;86.22;102508.03;4919634;28;47448;-84
2024/01/12 05:35:05;;;;;;;;;23.00;23.00;;;;;5.57;86.59;102487.56;4935533;28;44721;-84
2024/01/12 05:37:30;;;;;;;;;23.00;23.00;;;;;5.76;86.20;102510.75;4934955;28;44896;-85
2024/01/12 05:39:56;;;;;;;;;24.67;19.67;;;;;5.73;86.28;102495.63;4920302;28;45063;-84
2024/01/12 05:42:21;;;;;;;;;24.00;23.67;;;;;5.77;86.04;102496.72;4935970;28;47297;-84
2024/01/12 05:44:48;;;;;;;;;26.67;23.33;;;;;5.77;86.26;102505.53;4920232;28;45245;-85
2024/01/12 05:47:21;;;;;;;;;32.67;23.33;;;;;5.94;86.15;102513.63;4935302;28;44740;-84
2024/01/12 05:49:46;;;;;;;;;20.33;19.67;;;;;5.73;85.85;102506.19;4917640;28;44901;-84
2024/01/12 05:52:12;;;;;;;;;27.00;21.00;;;;;5.79;85.85;102517.13;4935193;28;45344;-84
2024/01/12 05:54:37;;;;;;;;;25.67;20.33;;;;;5.73;85.66;102506.19;4936569;28;44932;-85
2024/01/12 05:57:03;;;;;;;;;21.00;20.67;;;;;5.74;86.23;102508.03;4937008;28;45302;-84
2024/01/12 05:59:32;;;;;;;;;25.00;18.33;;;;;5.80;85.66;102513.69;4917913;28;44891;-85
2024/01/12 06:01:57;;;;;;;;;29.00;23.00;;;;;5.77;85.70;102505.53;4919078;28;47037;-84
2024/01/12 06:04:23;;;;;;;;;26.67;24.33;;;;;5.84;85.90;102508.56;4934649;28;44745;-84
2024/01/12 06:06:48;;;;;;;;;28.00;23.00;;;;;5.88;85.60;102515.84;4920395;28;44899;-84
2024/01/12 06:09:14;;;;;;;;;23.67;23.33;;;;;5.87;85.54;102516.69;4920578;28;44797;-84
2024/01/12 06:11:42;;;;;;;;;28.33;26.67;;;;;6.01;85.26;102519.38;4934917;28;45370;-84
2024/01/12 06:14:08;;;;;;;;;23.00;23.00;;;;;5.86;85.15;102514.84;4935525;28;45107;-84
2024/01/12 06:16:34;;;;;;;;;23.00;23.00;;;;;5.91;84.86;102526.63;4919438;28;44901;-84
2024/01/12 06:18:59;;;;;;;;;29.33;24.33;;;;;5.88;85.50;102513.22;4918037;28;44839;-84
2024/01/12 06:21:24;;;;;;;;;29.67;25.00;;;;;5.96;85.52;102525.22;4918811;28;47346;-84
2024/01/12 06:23:50;;;;;;;;;37.00;32.67;;;;;5.98;85.09;102528.88;4935753;28;44835;-84
2024/01/12 06:26:16;;;;;;;;;30.67;24.67;;;;;5.98;85.13;102523.59;4918664;28;45346;-85
2024/01/12 06:28:45;;;;;;;;;14.33;11.33;;;;;6.11;85.12;102534.06;4919072;28;44911;-84
2024/01/12 06:31:10;;;;;;;;;29.67;25.67;;;;;5.97;85.12;102530.59;4934844;28;47511;-83
2024/01/12 06:33:35;;;;;;;;;30.33;24.33;;;;;5.86;85.16;102518.44;4934606;28;44872;-84
2024/01/12 06:36:02;;;;;;;;;30.00;27.33;;;;;5.91;85.48;102519.59;4919904;28;45394;-85
2024/01/12 06:38:28;;;;;;;;;28.00;25.67;;;;;5.74;85.03;102497.47;4921407;28;45151;-84
2024/01/12 06:40:53;;;;;;;;;38.00;32.00;;;;;5.95;85.45;102532.22;4938679;28;45251;-84
2024/01/12 06:43:19;;;;;;;;;25.67;20.67;;;;;5.90;85.01;102508.94;4937347;28;44833;-84
2024/01/12 06:45:44;;;;;;;;;33.33;27.00;;;;;5.94;84.94;102530.38;4918727;28;44858;-85
2024/01/12 06:48:16;;;;;;;;;26.67;23.33;;;;;5.89;85.27;102534.44;4914937;29;45021;-84
2024/01/12 06:50:42;;;;;;;;;43.33;39.33;;;;;5.78;85.94;102512.66;4933719;28;47065;-84
2024/01/12 06:53:10;;;;;;;;;31.67;28.00;;;;;5.93;85.67;102541.75;4918676;28;44849;-84
2024/01/12 06:55:37;;;;;;;;;35.67;32.33;;;;;5.87;85.97;102511.41;4932340;28;44793;-85
2024/01/12 06:58:03;;;;;;;;;37.33;27.33;;;;;5.88;86.10;102534.34;4932840;28;44882;-85
2024/01/12 07:00:29;;;;;;;;;35.33;31.00;;;;;5.78;86.50;102520.59;4916680;28;45618;-84
2024/01/12 07:02:54;;;;;;;;;32.00;28.00;;;;;5.81;86.09;102526.03;4918287;28;44870;-84
2024/01/12 07:05:20;;;;;;;;;40.33;31.33;;;;;5.84;85.90;102519.13;4932498;28;44796;-84
2024/01/12 07:07:46;;;;;;;;;36.00;30.67;;;;;5.67;86.07;102495.25;4917433;29;44847;-85
2024/01/12 07:20:41;;;;;;;;;34.00;30.67;;;;;5.81;86.98;102515.47;4921115;23;45533;-84
2024/01/12 07:23:10;;;;;;;;;40.67;34.67;;;;;5.77;87.10;102518.75;4925295;28;44785;-85
2024/01/12 07:25:37;;;;;;;;;42.67;34.67;;;;;5.83;86.53;102544.63;4924672;28;44871;-84
2024/01/12 07:28:04;;;;;;;;;33.00;32.33;;;;;5.83;86.69;102544.63;4924677;28;44924;-84
2024/01/12 07:30:31;;;;;;;;;45.00;39.33;;;;;5.88;86.87;102545.84;4925931;28;45312;-85
2024/01/12 07:32:57;;;;;;;;;47.00;34.67;;;;;5.90;86.96;102552.13;4927265;28;45278;-86
2024/01/12 07:35:23;;;;;;;;;36.00;33.33;;;;;5.71;86.85;102520.09;4909492;28;44935;-83
2024/01/12 07:37:50;;;;;;;;;43.67;39.00;;;;;5.57;86.77;102520.13;4943609;28;44948;-83
2024/01/12 07:40:15;;;;;;;;;29.67;28.33;;;;;5.78;86.48;102533.78;4943344;28;45549;-84
2024/01/12 07:46:02;;;;;;;;;25.67;24.00;;;;;5.82;87.05;102543.72;4944001;28;44820;-85
2024/01/12 07:48:28;;;;;;;;;42.33;37.67;;;;;5.73;87.21;102521.13;4943610;28;44741;-84
2024/01/12 07:50:54;;;;;;;;;36.67;31.33;;;;;5.91;87.26;102548.66;4944216;28;45217;-85
2024/01/12 07:53:20;;;;;;;;;40.00;30.33;;;;;5.85;87.00;102547.38;4927336;28;45373;-84
2024/01/12 07:55:49;;;;;;;;;29.00;24.00;;;;;5.91;86.52;102543.38;4945368;28;45337;-84
2024/01/12 07:58:26;;;;;;;;;32.33;30.33;;;;;5.72;86.27;102509.66;4927986;28;44904;-84
2024/01/12 08:00:59;;;;;;;;;27.67;27.33;;;;;5.94;85.67;102543.59;4922529;28;45314;-85
2024/01/12 08:03:25;;;;;;;;;30.33;26.67;;;;;5.71;85.84;102539.50;4913073;28;44884;-85
2024/01/12 08:06:43;;;;;;;;;33.67;28.33;;;;;5.97;85.79;102553.44;4914032;28;45111;-85
2024/01/12 08:09:10;;;;;;;;;23.67;23.00;;;;;5.80;85.75;102533.91;4897306;28;44928;-86
2024/01/12 08:11:39;;;;;;;;;26.00;24.33;;;;;5.94;85.22;102535.66;4920485;28;46087;-84
2024/01/12 08:14:05;;;;;;;;;27.67;23.33;;;;;5.77;85.73;102534.59;4930318;28;45406;-85
2024/01/12 08:16:52;;;;;;;;;29.00;28.33;;;;;5.87;85.46;102529.91;4930701;28;45298;-84
2024/01/12 08:19:25;;;;;;;;;26.67;22.00;;;;;5.91;85.56;102542.47;4905236;29;45227;-82
2024/01/12 08:21:51;;;;;;;;;10.00;4.00;;;;;5.85;84.70;102544.72;4912093;28;46667;-83
2024/01/12 08:24:19;;;;;;;;;23.00;14.67;;;;;5.78;85.24;102512.66;4909622;28;45386;-84
2024/01/12 08:26:53;;;;;;;;;23.67;21.00;;;;;5.70;85.05;102511.28;4911466;28;44877;-85
2024/01/12 08:29:19;;;;;;;;;31.00;28.33;;;;;5.84;84.85;102541.19;4892699;28;45014;-85
2024/01/12 08:31:53;;;;;;;;;29.33;21.00;;;;;5.89;85.22;102530.91;4918024;28;45221;-86
2024/01/12 08:34:24;;;;;;;;;28.67;27.00;;;;;5.80;85.50;102537.44;4888590;28;44908;-84
2024/01/12 08:37:19;;;;;;;;;32.67;28.67;;;;;5.94;84.66;102532.13;4910842;29;44943;-84
2024/01/12 08:39:44;;;;;;;;;29.00;25.33;;;;;5.59;84.61;102485.94;4911599;28;44964;-85
2024/01/12 08:42:17;;;;;;;;;23.67;21.00;;;;;5.84;84.29;102527.03;4911412;29;46995;-84
2024/01/12 08:44:45;;;;;;;;;32.33;23.67;;;;;5.71;84.71;102510.44;4917218;28;44840;-84
2024/01/12 08:47:13;;;;;;;;;12.00;9.67;;;;;5.62;84.70;102507.25;4920581;28;44831;-83
2024/01/12 08:49:39;;;;;;;;;30.33;25.67;;;;;5.70;84.40;102515.66;4895802;28;45356;-86
2024/01/12 08:52:10;;;;;;;;;32.33;26.00;;;;;5.66;84.15;102496.06;4905416;28;46820;-84
2024/01/12 08:54:36;;;;;;;;;21.67;18.00;;;;;5.68;83.98;102526.13;4888243;28;45370;-87
2024/01/12 08:57:02;;;;;;;;;20.00;17.00;;;;;5.68;84.25;102512.00;4898433;28;44861;-86
2024/01/12 08:59:29;;;;;;;;;16.33;16.00;;;;;5.63;83.21;102519.63;4894597;28;44869;-86
2024/01/12 09:01:56;;;;;;;;;9.33;8.33;;;;;5.79;82.83;102546.16;4908469;28;45910;-84
2024/01/12 09:04:31;;;;;;;;;20.67;19.33;;;;;5.89;83.65;102559.94;4892283;29;44845;-82
2024/01/12 09:07:00;;;;;;;;;28.00;25.33;;;;;5.64;83.28;102505.63;4897079;28;44942;-82
2024/01/12 09:09:27;;;;;;;;;21.67;21.33;;;;;5.68;83.64;102549.88;4916511;29;45327;-82
2024/01/12 09:11:55;;;;;;;;;31.67;27.33;;;;;5.85;84.00;102560.56;4921459;28;45209;-83
2024/01/12 09:14:31;;;;;;;;;32.00;26.67;;;;;5.83;82.59;102539.34;5255087;23;45762;-85
2024/01/12 09:19:40;;;;;;;;;32.33;25.33;;;;;5.82;83.44;102559.56;5292046;23;46864;-83
2024/01/12 09:22:15;;;;;;;;;34.33;25.00;;;;;6.08;83.15;102562.03;4963159;28;45269;-83
2024/01/12 09:24:47;;;;;;;;;24.00;23.67;;;;;5.92;83.04;102560.16;5481021;23;46723;-85
2024/01/12 09:27:30;;;;;;;;;20.00;20.00;;;;;5.95;82.28;102549.81;4903195;28;44757;-85
2024/01/12 09:29:59;;;;;;;;;25.00;23.67;;;;;5.77;82.38;102549.53;4901991;28;44919;-83
2024/01/12 09:37:48;;;;;;;;;22.33;20.33;;;;;5.79;82.62;102511.84;4193948;23;45484;-83
2024/01/12 09:40:26;;;;;;;;;37.00;28.67;;;;;6.07;82.50;102579.59;4939778;28;44847;-82
2024/01/12 09:42:55;;;;;;;;;31.00;26.33;;;;;5.91;82.41;102560.97;4918791;28;47040;-84
2024/01/12 09:45:38;;;;;;;;;35.00;28.00;;;;;5.85;82.40;102556.19;4938626;28;44855;-83
2024/01/12 09:48:04;;;;;;;;;29.67;29.33;;;;;5.77;82.42;102563.63;5032433;23;45938;-85
2024/01/12 09:50:30;;;;;;;;;24.00;21.67;;;;;5.64;82.25;102549.59;4937517;28;45382;-84
2024/01/12 09:53:05;;;;;;;;;;;;;;;;;;;;;
2024/01/12 09:55:31;;;;;;;;;31.33;31.00;;;;;5.84;82.16;102567.59;4953558;28;72631;-86
2024/01/12 09:58:07;;;;;;;;;40.33;32.33;;;;;5.81;82.42;102557.72;4944417;28;44914;-82
2024/01/12 10:00:35;;;;;;;;;32.00;29.33;;;;;6.06;81.38;102612.13;4942280;28;45306;-80
2024/01/12 10:03:05;;;;;;;;;39.00;30.33;;;;;6.03;80.49;102585.53;4948806;28;45422;-84
2024/01/12 10:05:44;;;;;;;;;35.33;33.67;;;;;5.98;80.86;102579.97;4977787;23;45250;-84
2024/01/12 10:08:10;;;;;;;;;36.00;32.67;;;;;5.85;81.35;102589.63;4931422;28;44888;-82
2024/01/12 10:10:40;;;;;;;;;23.67;20.67;;;;;5.99;80.23;102599.34;4933845;28;44826;-84
2024/01/12 10:13:10;;;;;;;;;32.67;26.33;;;;;5.75;80.88;102573.19;5024750;23;45417;-83
2024/01/12 10:15:45;;;;;;;;;32.00;31.67;;;;;5.80;80.96;102589.34;4925172;28;44942;-83
2024/01/12 10:18:11;;;;;;;;;43.00;36.33;;;;;5.89;81.23;102612.75;4944916;28;45369;-82
2024/01/12 10:20:37;;;;;;;;;40.33;35.33;;;;;5.86;81.20;102607.28;4944267;28;45778;-83
2024/01/12 10:23:05;;;;;;;;;31.67;27.00;;;;;5.89;80.99;102612.75;4934106;28;47976;-82
2024/01/12 10:25:38;;;;;;;;;35.00;30.33;;;;;5.94;81.25;102611.34;4936982;28;45386;-83
2024/01/12 10:28:03;;;;;;;;;39.67;35.67;;;;;5.88;80.75;102621.47;4907032;28;44943;-81
2024/01/12 10:30:31;;;;;;;;;50.33;40.67;;;;;5.95;80.86;102626.38;4925305;28;44907;-83
2024/01/12 10:32:56;;;;;;;;;23.67;19.67;;;;;5.79;80.38;102612.16;4924621;28;46922;-83
2024/01/12 10:35:31;;;;;;;;;46.00;38.33;;;;;5.98;79.70;102616.03;4951403;28;45410;-84
2024/01/12 10:38:04;;;;;;;;;42.00;36.00;;;;;5.90;80.16;102610.22;4923872;28;44753;-82
2024/01/12 10:40:33;;;;;;;;;37.67;35.67;;;;;5.89;79.17;102607.47;4917407;28;45313;-82
2024/01/12 10:43:03;;;;;;;;;26.33;25.33;;;;;5.87;79.46;102622.31;4931455;28;45637;-81
2024/01/12 10:45:42;;;;;;;;;;;;;;;;;;;;;
2024/01/12 10:48:12;;;;;;;;;38.67;34.67;;;;;5.76;79.55;102621.66;4929747;28;67943;-83
2024/01/12 10:50:42;;;;;;;;;35.67;31.33;;;;;5.63;79.77;102582.06;5094610;23;46550;-81
2024/01/12 11:06:32;;;;;;;;;41.00;29.33;;;;;6.02;79.27;102567.88;5090333;23;45870;-83
2024/01/12 11:09:00;;;;;;;;;46.00;40.00;;;;;5.98;78.26;102557.94;4929651;28;44866;-83
2024/01/12 11:11:40;;;;;;;;;44.33;38.00;;;;;6.20;78.26;102600.69;4944415;28;45161;-84
2024/01/12 11:16:41;;;;;;;;;42.33;38.67;;;;;6.16;77.87;102592.47;4939475;28;44840;-83
2024/01/12 11:24:16;;;;;;;;;30.33;25.67;;;;;5.96;77.45;102580.69;4903271;28;45317;-83
2024/01/12 11:27:13;;;;;;;;;42.67;39.00;;;;;5.89;77.68;102549.38;5038835;23;45863;-84
2024/01/12 11:40:26;;;;;;;;;36.33;36.33;;;;;6.34;76.25;102560.97;5326589;23;46873;-83
2024/01/12 11:48:04;;;;;;;;;37.33;32.33;;;;;6.04;75.49;102549.44;4963931;23;45158;-81
2024/01/12 11:50:33;;;;;;;;;38.33;28.00;;;;;5.98;75.53;102560.56;4935558;28;44791;-84
2024/01/12 11:53:15;;;;;;;;;;;;;;;;;;;;;
2024/01/12 11:55:54;;;;;;;;;;;;;;;;;;;;;
2024/01/12 11:58:21;;;;;;;;;41.67;34.67;;;;;6.18;76.41;102527.41;4911008;28;73478;-83
2024/01/12 12:40:45;;;;;;;;;38.00;35.33;;;;;6.56;74.62;102526.16;4891237;29;45391;-84
2024/01/12 12:43:22;;;;;;;;;46.00;39.67;;;;;6.34;75.20;102473.78;4899021;29;45423;-85
2024/01/12 12:45:52;;;;;;;;;36.00;35.33;;;;;6.48;74.41;102474.59;4884212;29;44992;-83
2024/01/12 12:48:18;;;;;;;;;41.67;34.33;;;;;6.43;74.57;102479.63;4898962;29;46909;-84
2024/01/12 12:50:46;;;;;;;;;37.00;35.67;;;;;6.50;74.78;102495.00;4886090;29;44894;-84
2024/01/12 12:53:17;;;;;;;;;34.33;31.67;;;;;6.56;73.81;102511.25;4901713;29;44852;-85
2024/01/12 12:55:49;;;;;;;;;40.33;36.67;;;;;6.58;74.98;102493.75;4909757;29;44936;-85
2024/01/12 12:58:16;;;;;;;;;38.00;35.00;;;;;6.44;74.18;102486.69;4890855;29;45153;-87
2024/01/12 13:00:41;;;;;;;;;43.00;37.00;;;;;6.31;74.00;102486.81;4893609;29;44836;-84
2024/01/12 13:03:07;;;;;;;;;41.00;39.67;;;;;6.38;74.04;102491.63;4883044;29;45412;-84
2024/01/12 13:05:37;;;;;;;;;39.33;37.67;;;;;6.31;74.22;102481.53;4880173;29;45322;-84
2024/01/12 13:08:29;;;;;;;;;37.00;33.33;;;;;6.47;75.00;102478.97;4899956;28;45681;-84
2024/01/12 13:20:44;;;;;;;;;39.67;35.33;;;;;6.58;74.96;102443.50;5276256;23;45286;-83